createdAt,value
2018-11-26T00:00:36.120Z,11.50
2018-11-26T00:03:08.641Z,11.50
2018-11-26T00:05:36.914Z,12.43
2018-11-26T00:08:04.748Z,9.85
2018-11-26T00:10:43.782Z,12.58
2018-11-26T00:13:11.286Z,12.58
2018-11-26T00:15:38.794Z,13.00
2018-11-26T00:18:06.292Z,12.10
2018-11-26T00:20:33.774Z,10.78
2018-11-26T00:23:01.265Z,11.65
2018-11-26T00:25:28.751Z,10.75
2018-11-26T00:27:56.230Z,13.50
2018-11-26T00:30:23.714Z,12.93
2018-11-26T00:32:51.188Z,13.90
2018-11-26T00:35:18.652Z,11.65
2018-11-26T00:37:46.114Z,12.58
2018-11-26T00:40:13.627Z,14.25
2018-11-26T00:42:41.130Z,13.65
2018-11-26T00:45:10.625Z,11.73
2018-11-26T00:47:38.091Z,12.15
2018-11-26T00:50:07.003Z,12.37
2018-11-26T00:52:34.503Z,12.90
2018-11-26T00:55:01.992Z,11.97
2018-11-26T00:57:29.456Z,12.50
2018-11-26T00:59:56.880Z,12.82
2018-11-26T01:02:24.405Z,12.15
2018-11-26T01:04:51.963Z,13.55
2018-11-26T01:07:19.423Z,12.15
2018-11-26T01:09:46.895Z,11.85
2018-11-26T01:12:14.372Z,11.65
2018-11-26T01:14:41.933Z,12.13
2018-11-26T01:17:09.426Z,12.60
2018-11-26T01:19:36.891Z,12.50
2018-11-26T01:22:04.508Z,14.28
2018-11-26T01:24:31.964Z,12.40
2018-11-26T01:26:59.468Z,13.95
2018-11-26T01:29:26.920Z,13.10
2018-11-26T01:31:54.417Z,12.23
2018-11-26T01:34:21.884Z,12.93
2018-11-26T01:36:49.384Z,12.60
2018-11-26T01:39:16.869Z,12.45
2018-11-26T01:41:44.336Z,14.28
2018-11-26T01:44:11.815Z,13.03
2018-11-26T01:46:39.285Z,12.37
2018-11-26T01:49:06.758Z,13.45
2018-11-26T01:51:34.227Z,12.98
2018-11-26T01:54:01.724Z,11.33
2018-11-26T01:56:29.205Z,14.00
2018-11-26T01:58:56.685Z,9.63
2018-11-26T02:01:24.191Z,11.90
2018-11-26T02:03:51.694Z,11.20
2018-11-26T02:06:19.212Z,10.15
2018-11-26T02:08:46.727Z,11.50
2018-11-26T02:11:14.255Z,13.08
2018-11-26T02:13:41.736Z,10.98
2018-11-26T02:16:09.240Z,12.63
2018-11-26T02:18:36.743Z,11.83
2018-11-26T02:21:04.373Z,11.90
2018-11-26T02:23:31.958Z,13.00
2018-11-26T02:25:59.446Z,11.10
2018-11-26T02:28:26.912Z,11.48
2018-11-26T02:30:54.404Z,11.50
2018-11-26T02:33:21.857Z,11.93
2018-11-26T02:35:49.332Z,12.28
2018-11-26T02:38:16.865Z,12.65
2018-11-26T02:40:44.397Z,12.03
2018-11-26T02:43:11.903Z,11.53
2018-11-26T02:45:39.429Z,13.20
2018-11-26T02:48:06.990Z,14.70
2018-11-26T02:50:34.473Z,11.38
2018-11-26T02:53:01.975Z,11.68
2018-11-26T02:55:29.474Z,12.93
2018-11-26T02:57:56.959Z,11.50
2018-11-26T03:00:24.465Z,11.90
2018-11-26T03:02:51.940Z,12.58
2018-11-26T03:05:28.397Z,11.70
2018-11-26T03:07:55.958Z,12.50
2018-11-26T03:10:23.518Z,14.35
2018-11-26T03:12:51.022Z,13.68
2018-11-26T03:15:18.652Z,12.75
2018-11-26T03:17:46.127Z,12.90
2018-11-26T03:20:13.611Z,12.20
2018-11-26T03:22:41.109Z,11.95
2018-11-26T03:25:09.890Z,12.30
2018-11-26T03:27:37.420Z,12.88
2018-11-26T03:30:20.943Z,11.30
2018-11-26T03:32:48.466Z,11.12
2018-11-26T03:35:15.937Z,12.40
2018-11-26T03:37:43.460Z,11.90
2018-11-26T03:40:11.905Z,12.35
2018-11-26T03:42:39.427Z,13.55
2018-11-26T03:45:10.583Z,13.08
2018-11-26T03:47:38.081Z,12.65
2018-11-26T03:50:05.915Z,14.05
2018-11-26T03:52:33.459Z,11.45
2018-11-26T03:55:00.919Z,13.22
2018-11-26T03:57:28.425Z,13.95
2018-11-26T03:59:55.946Z,12.78
2018-11-26T04:02:23.439Z,13.20
2018-11-26T04:04:50.929Z,12.58
2018-11-26T04:07:18.428Z,13.55
2018-11-26T04:09:45.914Z,11.90
2018-11-26T04:12:13.413Z,14.98
2018-11-26T04:14:40.893Z,13.48
2018-11-26T04:17:08.508Z,13.45
2018-11-26T04:19:35.984Z,12.63
2018-11-26T04:22:03.554Z,13.22
2018-11-26T04:24:31.029Z,13.45
2018-11-26T04:26:58.603Z,13.45
2018-11-26T04:29:26.074Z,14.47
2018-11-26T04:31:53.567Z,15.75
2018-11-26T04:34:21.067Z,15.43
2018-11-26T04:36:48.561Z,16.55
2018-11-26T04:39:16.041Z,14.55
2018-11-26T04:41:43.544Z,15.65
2018-11-26T04:44:11.029Z,15.65
2018-11-26T04:46:38.498Z,13.80
2018-11-26T04:49:06.009Z,16.10
2018-11-26T04:51:33.531Z,15.13
2018-11-26T04:54:01.079Z,16.67
2018-11-26T04:56:28.553Z,15.32
2018-11-26T04:58:56.010Z,15.75
2018-11-26T05:01:23.488Z,16.17
2018-11-26T05:03:51.012Z,15.75
2018-11-26T05:06:18.509Z,19.77
2018-11-26T05:08:45.940Z,15.70
2018-11-26T05:11:13.430Z,15.85
2018-11-26T05:13:40.933Z,16.75
2018-11-26T05:16:08.372Z,15.90
2018-11-26T05:18:35.868Z,19.32
2018-11-26T05:21:03.363Z,16.50
2018-11-26T05:23:30.880Z,16.17
2018-11-26T05:25:58.394Z,15.55
2018-11-26T05:28:25.896Z,16.87
2018-11-26T05:30:53.397Z,18.80
2018-11-26T05:33:20.903Z,17.90
2018-11-26T05:35:48.399Z,20.45
2018-11-26T05:38:15.894Z,18.23
2018-11-26T05:40:43.397Z,19.67
2018-11-26T05:43:10.927Z,19.67
2018-11-26T05:45:38.390Z,19.15
2018-11-26T05:48:05.980Z,19.90
2018-11-26T05:50:33.468Z,20.40
2018-11-26T05:53:00.955Z,20.75
2018-11-26T05:55:28.497Z,20.82
2018-11-26T05:57:56.053Z,20.12
2018-11-26T06:00:29.418Z,19.98
2018-11-26T06:02:56.936Z,17.60
2018-11-26T06:05:24.429Z,19.62
2018-11-26T06:07:51.956Z,21.60
2018-11-26T06:10:20.029Z,19.45
2018-11-26T06:12:47.672Z,18.37
2018-11-26T06:15:15.166Z,21.93
2018-11-26T06:17:42.712Z,21.05
2018-11-26T06:20:11.241Z,20.97
2018-11-26T06:22:39.165Z,19.90
2018-11-26T06:25:08.923Z,21.77
2018-11-26T06:27:36.537Z,20.95
2018-11-26T06:30:07.597Z,18.55
2018-11-26T06:32:35.109Z,17.67
2018-11-26T06:35:02.590Z,20.88
2018-11-26T06:37:30.109Z,16.67
2018-11-26T06:39:57.616Z,20.15
2018-11-26T06:42:25.139Z,21.12
2018-11-26T06:44:52.767Z,19.98
2018-11-26T06:47:20.246Z,18.52
2018-11-26T06:49:47.708Z,18.75
2018-11-26T06:52:15.250Z,19.12
2018-11-26T06:54:42.702Z,17.48
2018-11-26T06:57:10.172Z,20.68
2018-11-26T06:59:37.639Z,19.32
2018-11-26T07:02:05.420Z,17.95
2018-11-26T07:04:32.962Z,18.00
2018-11-26T07:07:00.707Z,20.52
2018-11-26T07:09:28.211Z,17.75
2018-11-26T07:11:55.751Z,20.85
2018-11-26T07:14:23.351Z,18.45
2018-11-26T07:16:50.825Z,20.15
2018-11-26T07:19:18.341Z,18.65
2018-11-26T07:21:45.841Z,35.55
2018-11-26T07:24:13.333Z,20.92
2018-11-26T07:26:40.826Z,17.87
2018-11-26T07:29:08.321Z,19.30
2018-11-26T07:31:35.825Z,22.60
2018-11-26T07:34:03.301Z,19.87
2018-11-26T07:36:30.894Z,18.02
2018-11-26T07:38:58.421Z,17.90
2018-11-26T07:41:25.926Z,14.68
2018-11-26T07:43:53.450Z,15.43
2018-11-26T07:46:20.960Z,17.23
2018-11-26T07:48:48.488Z,16.27
2018-11-26T07:51:16.012Z,15.75
2018-11-26T07:53:43.512Z,14.50
2018-11-26T07:56:11.042Z,17.60
2018-11-26T07:58:38.552Z,15.32
2018-11-26T08:01:06.144Z,15.30
2018-11-26T08:03:33.971Z,14.80
2018-11-26T08:06:02.407Z,15.35
2018-11-26T08:08:28.993Z,16.00
2018-11-26T08:10:56.530Z,13.43
2018-11-26T08:13:24.077Z,13.78
2018-11-26T08:15:51.588Z,14.95
2018-11-26T08:18:19.103Z,14.43
2018-11-26T08:20:46.704Z,15.30
2018-11-26T08:23:14.458Z,12.33
2018-11-26T08:25:42.076Z,15.48
2018-11-26T08:28:09.569Z,16.25
2018-11-26T08:30:37.042Z,13.98
2018-11-26T08:33:05.405Z,15.10
2018-11-26T08:35:32.878Z,14.35
2018-11-26T08:38:05.917Z,12.20
2018-11-26T08:40:39.068Z,14.53
2018-11-26T08:43:06.705Z,13.30
2018-11-26T08:45:36.160Z,13.35
2018-11-26T08:48:09.284Z,13.70
2018-11-26T08:50:36.981Z,13.70
2018-11-26T08:53:04.671Z,12.60
2018-11-26T08:55:32.205Z,13.98
2018-11-26T08:57:59.682Z,14.30
2018-11-26T09:00:27.194Z,14.63
2018-11-26T09:02:54.735Z,12.75
2018-11-26T09:05:26.798Z,13.10
2018-11-26T09:07:54.325Z,14.50
2018-11-26T09:10:21.943Z,13.50
2018-11-26T09:12:49.848Z,15.10
2018-11-26T09:15:17.357Z,15.00
2018-11-26T09:17:44.923Z,14.03
2018-11-26T09:20:12.411Z,16.52
2018-11-26T09:22:39.888Z,14.50
2018-11-26T09:25:09.767Z,15.75
2018-11-26T09:27:37.309Z,14.05
2018-11-26T09:30:11.904Z,14.87
2018-11-26T09:32:40.249Z,13.43
2018-11-26T09:35:09.842Z,14.53
2018-11-26T09:37:37.392Z,19.23
2018-11-26T09:40:06.627Z,16.10
2018-11-26T09:42:34.104Z,14.58
2018-11-26T09:45:01.674Z,16.48
2018-11-26T09:47:29.175Z,17.67
2018-11-26T09:49:56.693Z,15.55
2018-11-26T09:52:24.151Z,13.72
2018-11-26T09:54:51.664Z,12.37
2018-11-26T09:57:19.189Z,16.07
2018-11-26T09:59:46.803Z,10.98
2018-11-26T10:02:14.393Z,11.73
2018-11-26T10:04:41.921Z,11.15
2018-11-26T10:07:09.474Z,11.68
2018-11-26T10:09:36.945Z,12.00
2018-11-26T10:12:04.473Z,12.35
2018-11-26T10:14:32.045Z,13.55
2018-11-26T10:16:59.538Z,10.25
2018-11-26T10:19:27.151Z,11.80
2018-11-26T10:21:54.725Z,10.88
2018-11-26T10:24:22.385Z,13.25
2018-11-26T10:26:49.855Z,13.68
2018-11-26T10:29:17.365Z,13.18
2018-11-26T10:31:44.904Z,13.68
2018-11-26T10:34:12.432Z,12.20
2018-11-26T10:36:41.140Z,12.93
2018-11-26T10:39:08.675Z,13.05
2018-11-26T10:41:36.196Z,13.35
2018-11-26T10:44:04.032Z,13.15
2018-11-26T10:46:31.544Z,13.00
2018-11-26T10:48:59.032Z,12.10
2018-11-26T10:51:26.503Z,11.20
2018-11-26T10:53:54.079Z,11.50
2018-11-26T10:56:21.726Z,10.15
2018-11-26T10:58:49.282Z,12.65
2018-11-26T11:01:22.410Z,12.23
2018-11-26T11:03:49.892Z,13.05
2018-11-26T11:06:17.371Z,13.50
2018-11-26T11:08:44.930Z,11.60
2018-11-26T11:11:12.407Z,11.20
2018-11-26T11:13:40.667Z,10.93
2018-11-26T11:16:07.440Z,12.37
2018-11-26T11:18:34.973Z,11.48
2018-11-26T11:21:02.564Z,11.15
2018-11-26T11:23:30.179Z,13.40
2018-11-26T11:25:57.727Z,12.28
2018-11-26T11:28:25.199Z,12.65
2018-11-26T11:30:52.696Z,12.55
2018-11-26T11:35:47.313Z,11.80
2018-11-26T11:38:14.823Z,11.30
2018-11-26T11:40:42.314Z,12.80
2018-11-26T11:43:09.777Z,12.33
2018-11-26T11:45:37.252Z,13.05
2018-11-26T11:48:05.273Z,12.75
2018-11-26T11:50:32.792Z,11.83
2018-11-26T11:53:00.268Z,10.78
2018-11-26T11:55:27.801Z,11.22
2018-11-26T11:57:55.283Z,10.20
2018-11-26T12:00:36.877Z,10.98
2018-11-26T12:03:11.169Z,11.00
2018-11-26T12:05:38.658Z,10.65
2018-11-26T12:08:07.253Z,10.03
2018-11-26T12:10:34.743Z,9.48
2018-11-26T12:13:02.329Z,11.78
2018-11-26T12:15:29.893Z,9.78
2018-11-26T12:17:57.403Z,10.03
2018-11-26T12:20:24.885Z,10.68
2018-11-26T12:22:52.374Z,11.60
2018-11-26T12:25:20.616Z,8.95
2018-11-26T12:27:48.143Z,10.53
2018-11-26T12:30:19.635Z,8.98
2018-11-26T12:32:47.117Z,7.72
2018-11-26T12:35:14.702Z,9.50
2018-11-26T12:37:42.232Z,8.65
2018-11-26T12:40:11.035Z,9.78
2018-11-26T12:42:38.527Z,10.58
2018-11-26T12:45:25.640Z,9.90
2018-11-26T12:47:53.296Z,11.93
2018-11-26T12:50:20.877Z,11.08
2018-11-26T12:52:48.499Z,16.80
2018-11-26T12:55:17.186Z,12.05
2018-11-26T12:57:45.405Z,11.95
2018-11-26T13:00:17.830Z,9.55
2018-11-26T13:02:48.664Z,9.83
2018-11-26T13:05:18.404Z,9.58
2018-11-26T13:07:45.953Z,7.25
2018-11-26T13:10:15.397Z,9.33
2018-11-26T13:12:43.131Z,9.65
2018-11-26T13:15:18.835Z,10.13
2018-11-26T13:17:46.341Z,10.10
2018-11-26T13:20:15.015Z,11.80
2018-11-26T13:22:42.866Z,12.00
2018-11-26T13:25:12.471Z,13.03
2018-11-26T13:27:48.089Z,10.50
2018-11-26T13:30:17.828Z,8.78
2018-11-26T13:32:47.641Z,11.85
2018-11-26T13:35:16.073Z,10.53
2018-11-26T13:37:43.643Z,11.08
2018-11-26T13:40:12.416Z,10.30
2018-11-26T13:42:40.113Z,10.98
2018-11-26T13:45:13.098Z,10.85
2018-11-26T13:47:40.798Z,10.55
2018-11-26T13:50:15.174Z,13.10
2018-11-26T13:52:42.784Z,13.65
2018-11-26T13:55:11.423Z,13.10
2018-11-26T13:57:38.961Z,11.43
2018-11-26T14:00:08.866Z,13.00
2018-11-26T14:02:36.350Z,14.55
2018-11-26T14:05:05.233Z,9.75
2018-11-26T14:07:32.725Z,10.90
2018-11-26T14:10:00.258Z,12.75
2018-11-26T14:12:27.906Z,13.15
2018-11-26T14:14:55.497Z,16.23
2018-11-26T14:17:23.874Z,15.08
2018-11-26T14:19:51.441Z,16.35
2018-11-26T14:22:19.075Z,16.55
2018-11-26T14:24:46.663Z,14.10
2018-11-26T14:27:14.239Z,14.93
2018-11-26T14:29:42.483Z,13.03
2018-11-26T14:32:10.110Z,13.90
2018-11-26T14:34:38.407Z,13.43
2018-11-26T14:37:06.118Z,14.70
2018-11-26T14:39:33.741Z,12.88
2018-11-26T14:42:01.325Z,13.85
2018-11-26T14:44:29.126Z,12.30
2018-11-26T14:46:56.820Z,15.00
2018-11-26T14:49:24.504Z,14.33
2018-11-26T14:51:52.168Z,17.25
2018-11-26T14:54:19.866Z,15.55
2018-11-26T14:56:47.416Z,14.20
2018-11-26T14:59:15.409Z,14.25
2018-11-26T15:01:42.973Z,26.57
2018-11-26T15:04:10.611Z,15.55
2018-11-26T15:06:38.304Z,16.10
2018-11-26T15:09:07.858Z,14.53
2018-11-26T15:11:35.505Z,20.88
2018-11-26T15:14:03.132Z,14.43
2018-11-26T15:16:30.683Z,18.17
2018-11-26T15:18:58.384Z,18.17
2018-11-26T15:21:25.955Z,13.25
2018-11-26T15:23:53.615Z,14.43
2018-11-26T15:26:21.120Z,17.73
2018-11-26T15:28:49.695Z,16.62
2018-11-26T15:31:17.219Z,15.60
2018-11-26T15:33:44.951Z,18.70
2018-11-26T15:36:12.487Z,14.43
2018-11-26T15:38:40.017Z,12.63
2018-11-26T15:41:08.473Z,13.08
2018-11-26T15:43:36.178Z,12.50
2018-11-26T15:46:03.766Z,14.45
2018-11-26T15:48:31.825Z,13.80
2018-11-26T15:50:59.868Z,15.10
2018-11-26T15:53:28.572Z,13.10
2018-11-26T15:55:56.164Z,14.93
2018-11-26T15:58:23.833Z,15.65
2018-11-26T16:00:51.378Z,15.13
2018-11-26T16:03:18.914Z,15.45
2018-11-26T16:05:46.466Z,16.48
2018-11-26T16:08:15.481Z,17.05
2018-11-26T16:10:45.792Z,15.78
2018-11-26T16:13:15.013Z,16.67
2018-11-26T16:15:44.187Z,15.35
2018-11-26T16:18:16.536Z,16.40
2018-11-26T16:20:44.139Z,12.85
2018-11-26T16:23:11.847Z,15.78
2018-11-26T16:25:41.197Z,14.35
2018-11-26T16:28:10.177Z,15.13
2018-11-26T16:30:39.206Z,14.70
2018-11-26T16:33:09.747Z,14.75
2018-11-26T16:35:38.197Z,14.63
2018-11-26T16:38:10.203Z,15.15
2018-11-26T16:40:39.066Z,15.43
2018-11-26T16:43:07.483Z,13.60
2018-11-26T16:45:35.077Z,18.57
2018-11-26T16:48:02.670Z,14.63
2018-11-26T16:50:32.770Z,17.20
2018-11-26T16:53:00.410Z,13.98
2018-11-26T16:55:28.972Z,11.90
2018-11-26T16:57:56.713Z,11.97
2018-11-26T17:00:26.193Z,13.03
2018-11-26T17:02:55.150Z,14.00
2018-11-26T17:05:32.846Z,12.40
2018-11-26T17:08:01.981Z,13.22
2018-11-26T17:10:30.390Z,12.20
2018-11-26T17:12:57.949Z,11.93
2018-11-26T17:15:25.741Z,15.23
2018-11-26T17:17:53.521Z,13.32
2018-11-26T17:20:22.285Z,12.65
2018-11-26T17:22:50.221Z,14.47
2018-11-26T17:25:17.929Z,13.55
2018-11-26T17:27:46.278Z,14.05
2018-11-26T17:30:23.384Z,12.45
2018-11-26T17:32:58.915Z,13.80
2018-11-26T17:35:26.767Z,14.00
2018-11-26T17:37:54.391Z,12.60
2018-11-26T17:40:25.739Z,14.33
2018-11-26T17:42:53.825Z,10.80
2018-11-26T17:45:22.185Z,15.28
2018-11-26T17:47:59.382Z,13.83
2018-11-26T17:50:35.032Z,15.32
2018-11-26T17:53:02.668Z,11.03
2018-11-26T17:55:30.273Z,13.10
2018-11-26T17:57:57.906Z,14.80
2018-11-26T18:00:30.316Z,18.05
2018-11-26T18:02:57.872Z,13.78
2018-11-26T18:05:26.819Z,15.23
2018-11-26T18:08:13.204Z,13.72
2018-11-26T18:10:40.841Z,17.15
2018-11-26T18:13:08.621Z,15.98
2018-11-26T18:15:36.147Z,14.05
2018-11-26T18:18:05.347Z,14.47
2018-11-26T18:20:32.889Z,12.78
2018-11-26T18:23:00.423Z,15.03
2018-11-26T18:25:28.199Z,15.48
2018-11-26T18:28:12.967Z,16.15
2018-11-26T18:30:43.704Z,16.12
2018-11-26T18:33:11.285Z,15.43
2018-11-26T18:35:39.601Z,14.10
2018-11-26T18:38:08.544Z,13.62
2018-11-26T18:40:37.515Z,13.72
2018-11-26T18:43:06.286Z,12.55
2018-11-26T18:45:33.910Z,13.30
2018-11-26T18:48:01.512Z,14.20
2018-11-26T18:50:29.049Z,15.40
2018-11-26T18:52:56.603Z,13.60
2018-11-26T18:55:24.247Z,16.67
2018-11-26T18:57:52.615Z,13.98
2018-11-26T19:00:22.672Z,12.68
2018-11-26T19:02:51.145Z,13.83
2018-11-26T19:05:19.253Z,13.53
2018-11-26T19:07:46.886Z,12.25
2018-11-26T19:10:24.408Z,13.32
2018-11-26T19:12:56.519Z,12.73
2018-11-26T19:15:34.790Z,12.03
2018-11-26T19:18:07.897Z,13.28
2018-11-26T19:20:35.491Z,11.55
2018-11-26T19:23:03.005Z,10.38
2018-11-26T19:25:30.730Z,14.25
2018-11-26T19:27:58.437Z,11.63
2018-11-26T19:30:26.029Z,12.28
2018-11-26T19:32:53.564Z,12.65
2018-11-26T19:35:21.227Z,14.70
2018-11-26T19:37:48.844Z,12.25
2018-11-26T19:40:16.544Z,11.28
2018-11-26T19:42:45.345Z,12.30
2018-11-26T19:45:15.126Z,13.62
2018-11-26T19:47:42.769Z,11.80
2018-11-26T19:50:11.719Z,13.28
2018-11-26T19:52:39.250Z,12.90
2018-11-26T19:55:12.675Z,12.05
2018-11-26T19:57:40.823Z,11.80
2018-11-26T20:00:16.258Z,10.20
2018-11-26T20:02:45.457Z,10.45
2018-11-26T20:05:23.169Z,9.30
2018-11-26T20:07:50.785Z,11.08
2018-11-26T20:10:19.342Z,10.15
2018-11-26T20:12:47.011Z,10.70
2018-11-26T20:15:16.164Z,8.88
2018-11-26T20:17:43.716Z,11.45
2018-11-26T20:20:11.311Z,10.15
2018-11-26T20:22:38.861Z,10.10
2018-11-26T20:25:12.160Z,10.53
2018-11-26T20:27:40.201Z,9.33
2018-11-26T20:30:10.028Z,9.98
2018-11-26T20:32:37.801Z,10.38
2018-11-26T20:35:07.628Z,9.08
2018-11-26T20:37:35.651Z,9.63
2018-11-26T20:40:04.262Z,9.40
2018-11-26T20:42:31.829Z,12.82
2018-11-26T20:44:59.457Z,12.43
2018-11-26T20:47:27.592Z,11.80
2018-11-26T20:49:54.523Z,11.10
2018-11-26T20:52:22.049Z,12.35
2018-11-26T20:54:49.617Z,11.83
2018-11-26T20:57:17.081Z,11.28
2018-11-26T20:59:44.639Z,11.53
2018-11-26T21:02:12.366Z,10.78
2018-11-26T21:04:40.100Z,11.50
2018-11-26T21:07:07.877Z,11.20
2018-11-26T21:09:35.737Z,9.95
2018-11-26T21:12:03.362Z,11.03
2018-11-26T21:14:30.959Z,10.10
2018-11-26T21:16:58.514Z,11.63
2018-11-26T21:19:26.048Z,11.22
2018-11-26T21:21:53.643Z,9.28
2018-11-26T21:24:21.196Z,9.60
2018-11-26T21:26:48.757Z,9.60
2018-11-26T21:29:16.700Z,10.13
2018-11-26T21:31:44.297Z,11.08
2018-11-26T21:34:11.916Z,10.95
2018-11-26T21:36:39.519Z,11.97
2018-11-26T21:39:09.057Z,10.85
2018-11-26T21:41:36.626Z,10.10
2018-11-26T21:44:04.758Z,9.05
2018-11-26T21:46:32.485Z,12.07
2018-11-26T21:49:00.029Z,9.98
2018-11-26T21:51:27.678Z,11.08
2018-11-26T21:53:55.359Z,11.55
2018-11-26T21:56:22.978Z,12.45
2018-11-26T21:58:50.498Z,11.60
2018-11-26T22:01:18.073Z,11.33
2018-11-26T22:03:45.652Z,14.87
2018-11-26T22:06:13.218Z,14.68
2018-11-26T22:08:40.803Z,13.58
2018-11-26T22:11:08.624Z,13.45
2018-11-26T22:13:36.197Z,14.00
2018-11-26T22:16:03.788Z,13.60
2018-11-26T22:18:31.364Z,14.58
2018-11-26T22:20:58.917Z,14.80
2018-11-26T22:23:26.492Z,13.45
2018-11-26T22:25:54.066Z,12.18
2018-11-26T22:28:21.658Z,12.15
2018-11-26T22:30:49.211Z,12.63
2018-11-26T22:33:16.788Z,12.47
2018-11-26T22:35:44.337Z,13.93
2018-11-26T22:38:11.840Z,14.18
2018-11-26T22:40:39.317Z,13.38
2018-11-26T22:43:06.801Z,14.20
2018-11-26T22:45:34.668Z,12.95
2018-11-26T22:48:05.081Z,13.28
2018-11-26T22:50:32.600Z,13.28
2018-11-26T22:53:00.090Z,14.73
2018-11-26T22:55:27.566Z,11.93
2018-11-26T22:57:55.085Z,14.10
2018-11-26T23:00:28.571Z,13.18
2018-11-26T23:02:58.175Z,10.98
2018-11-26T23:05:25.758Z,14.13
2018-11-26T23:07:53.292Z,12.70
2018-11-26T23:10:20.823Z,11.90
2018-11-26T23:12:48.330Z,13.32
2018-11-26T23:15:16.203Z,13.30
2018-11-26T23:17:44.538Z,12.20
2018-11-26T23:20:13.131Z,10.68
2018-11-26T23:22:40.692Z,11.83
2018-11-26T23:25:09.726Z,10.50
2018-11-26T23:27:37.415Z,11.70
2018-11-26T23:30:11.624Z,10.08
2018-11-26T23:32:39.149Z,12.40
2018-11-26T23:35:06.685Z,12.95
2018-11-26T23:37:34.162Z,11.28
2018-11-26T23:40:01.668Z,12.93
2018-11-26T23:42:29.166Z,10.95
2018-11-26T23:44:56.666Z,12.25
2018-11-26T23:47:24.118Z,13.68
2018-11-26T23:49:51.573Z,13.43
2018-11-26T23:52:19.028Z,13.35
2018-11-26T23:54:46.512Z,10.70
2018-11-26T23:57:14.030Z,12.73
2018-11-26T23:59:41.504Z,11.88
